Time;durP1;ratioP1;P1;durP2;ratioP2;P2;SDS_P1;SDS_P2;PMS_P1;PMS_P2;Temp;Humidity;BMP_temperature;BMP_pressure;BME280_temperature;BME280_humidity;BME280_pressure;Samples;Min_cycle;Max_cycle;Signal;HPM_P1;HPM_P2
2023/11/02 00:01:11;0.00;0.00;0.62;0.00;0.00;0.62;5.10;4.60;;;24.20;30.30;;;;;;2259771;61;20845;-61
2023/11/02 00:03:56;0.00;0.00;0.62;0.00;0.00;0.62;4.40;4.00;;;24.20;30.30;;;;;;2247106;61;20391;-61
2023/11/02 00:06:46;0.00;0.00;0.62;0.00;0.00;0.62;6.27;4.70;;;24.20;30.30;;;;;;2247333;61;20671;-61
2023/11/02 00:09:36;0.00;0.00;0.62;0.00;0.00;0.62;6.27;5.47;;;24.20;30.30;;;;;;2246527;61;20766;-60
2023/11/02 00:12:26;0.00;0.00;0.62;0.00;0.00;0.62;5.50;4.90;;;24.20;31.00;;;;;;2247566;61;20368;-60
2023/11/02 00:15:11;0.00;0.00;0.62;0.00;0.00;0.62;6.10;5.30;;;24.20;30.30;;;;;;2260049;61;20436;-61
2023/11/02 00:18:00;0.00;0.00;0.62;0.00;0.00;0.62;6.47;5.17;;;24.20;30.30;;;;;;2259681;61;20454;-64
2023/11/02 00:20:49;0.00;0.00;0.62;0.00;0.00;0.62;5.47;4.30;;;24.20;30.30;;;;;;2260422;61;20411;-60
2023/11/02 00:23:43;0.00;0.00;0.62;0.00;0.00;0.62;6.43;4.97;;;24.20;30.30;;;;;;2260176;61;20381;-62
2023/11/02 00:26:28;0.00;0.00;0.62;0.00;0.00;0.62;6.00;4.93;;;24.20;30.30;;;;;;2260289;61;20408;-62
2023/11/02 00:29:13;0.00;0.00;0.62;0.00;0.00;0.62;5.53;4.63;;;24.20;30.30;;;;;;2260002;61;20428;-61
2023/11/02 00:31:58;0.00;0.00;0.62;0.00;0.00;0.62;5.43;4.80;;;24.20;30.30;;;;;;2259555;61;20507;-62
2023/11/02 00:34:42;0.00;0.00;0.62;0.00;0.00;0.62;5.10;4.50;;;24.20;30.20;;;;;;2260326;61;20389;-58
2023/11/02 00:37:27;0.00;0.00;0.62;0.00;0.00;0.62;6.10;4.50;;;24.20;30.30;;;;;;2259448;61;20411;-63
2023/11/02 00:40:15;0.00;0.00;0.62;0.00;0.00;0.62;4.30;3.77;;;24.20;30.20;;;;;;2256413;61;20361;-60
2023/11/02 00:43:00;0.00;0.00;0.62;0.00;0.00;0.62;4.93;4.20;;;24.20;30.20;;;;;;2260108;61;20401;-61
2023/11/02 00:45:45;0.00;0.00;0.62;0.00;0.00;0.62;5.40;4.40;;;24.20;30.20;;;;;;2260285;61;20454;-61
2023/11/02 00:48:32;0.00;0.00;0.62;0.00;0.00;0.62;5.83;4.63;;;24.20;30.20;;;;;;2259148;61;20905;-60
2023/11/02 00:51:20;0.00;0.00;0.62;0.00;0.00;0.62;6.13;4.53;;;24.20;30.20;;;;;;2260329;61;20379;-60
2023/11/02 00:54:07;0.00;0.00;0.62;0.00;0.00;0.62;5.50;4.40;;;24.20;30.60;;;;;;2259396;61;20473;-62
2023/11/02 00:56:53;0.00;0.00;0.62;0.00;0.00;0.62;5.13;4.00;;;24.10;30.10;;;;;;2260074;61;20467;-62
2023/11/02 00:59:38;0.00;0.00;0.62;0.00;0.00;0.62;5.20;4.60;;;24.10;30.10;;;;;;2259517;61;20369;-61
2023/11/02 01:02:23;0.00;0.00;0.62;0.00;0.00;0.62;5.53;4.43;;;24.20;30.20;;;;;;2259426;61;20381;-62
2023/11/02 01:05:25;0.00;0.00;0.62;0.00;0.00;0.62;6.37;4.90;;;24.20;30.30;;;;;;2260133;61;20466;-58
2023/11/02 01:08:11;0.00;0.00;0.62;0.00;0.00;0.62;4.93;4.03;;;24.10;30.20;;;;;;2259145;61;20838;-59
2023/11/02 01:10:56;0.00;0.00;0.62;0.00;0.00;0.62;5.63;4.40;;;24.20;30.20;;;;;;2260086;61;20789;-60
2023/11/02 01:13:42;0.00;0.00;0.62;0.00;0.00;0.62;5.97;4.93;;;24.20;30.20;;;;;;2259549;61;20396;-60
2023/11/02 01:16:28;0.00;0.00;0.62;0.00;0.00;0.62;6.13;4.60;;;24.20;30.30;;;;;;2259900;61;20373;-61
2023/11/02 01:19:55;0.00;0.00;0.62;0.00;0.00;0.62;5.33;4.20;;;24.20;30.30;;;;;;2259825;61;20396;-61
2023/11/02 01:22:54;0.00;0.00;0.62;0.00;0.00;0.62;5.60;4.30;;;24.10;30.20;;;;;;2246747;61;20399;-59
2023/11/02 01:25:42;0.00;0.00;0.62;0.00;0.00;0.62;5.23;4.00;;;24.20;30.20;;;;;;2244332;61;20871;-59
2023/11/02 01:28:53;0.00;0.00;0.62;0.00;0.00;0.62;6.53;5.10;;;24.10;30.20;;;;;;2259903;61;20365;-61
2023/11/02 01:31:38;0.00;0.00;0.62;0.00;0.00;0.62;4.53;3.90;;;24.10;30.20;;;;;;2259832;61;20419;-59
2023/11/02 01:34:24;0.00;0.00;0.62;0.00;0.00;0.62;6.67;4.17;;;24.10;30.10;;;;;;2259952;61;20397;-62
2023/11/02 01:37:10;0.00;0.00;0.62;0.00;0.00;0.62;4.77;4.10;;;24.10;30.10;;;;;;2260119;61;20368;-59
2023/11/02 01:40:08;0.00;0.00;0.62;0.00;0.00;0.62;5.30;4.40;;;24.10;30.10;;;;;;2259416;61;20416;-62
2023/11/02 01:42:55;0.00;0.00;0.62;0.00;0.00;0.62;5.63;4.80;;;24.10;30.20;;;;;;2260173;61;20365;-61
2023/11/02 01:45:44;0.00;0.00;0.62;0.00;0.00;0.62;4.97;3.87;;;24.10;30.20;;;;;;2256467;61;20369;-61
2023/11/02 01:48:35;0.00;0.00;0.62;0.00;0.00;0.62;4.50;4.07;;;24.10;30.10;;;;;;2259275;61;20446;-62
2023/11/02 01:51:33;0.00;0.00;0.62;0.00;0.00;0.62;4.17;3.73;;;24.10;30.20;;;;;;2259347;61;20373;-62
2023/11/02 01:54:28;0.00;0.00;0.62;0.00;0.00;0.62;6.23;4.10;;;24.10;30.20;;;;;;2256409;61;20397;-59
2023/11/02 01:57:23;0.00;0.00;0.62;0.00;0.00;0.62;5.40;4.27;;;24.10;30.20;;;;;;2260222;61;20357;-62
2023/11/02 02:00:15;0.00;0.00;0.62;0.00;0.00;0.62;5.50;3.73;;;24.10;30.20;;;;;;2258846;61;20446;-61
2023/11/02 02:03:13;0.00;0.00;0.62;0.00;0.00;0.62;6.43;4.70;;;24.10;30.20;;;;;;2260097;61;20449;-62
2023/11/02 02:06:07;0.00;0.00;0.62;0.00;0.00;0.62;6.20;4.20;;;24.10;30.10;;;;;;2260007;61;20361;-62
2023/11/02 02:09:07;0.00;0.00;0.62;0.00;0.00;0.62;4.40;3.87;;;24.10;30.20;;;;;;2259394;61;20400;-62
2023/11/02 02:11:59;0.00;0.00;0.62;0.00;0.00;0.62;5.90;4.00;;;24.10;30.20;;;;;;2259623;61;20357;-62
2023/11/02 02:15:02;0.00;0.00;0.62;0.00;0.00;0.62;4.10;3.60;;;24.10;30.20;;;;;;2258866;61;20436;-63
2023/11/02 02:17:58;0.00;0.00;0.62;0.00;0.00;0.62;5.00;3.80;;;24.10;30.20;;;;;;2259846;61;20392;-63
2023/11/02 02:20:50;0.00;0.00;0.62;0.00;0.00;0.62;4.90;4.07;;;24.10;30.20;;;;;;2259508;61;20914;-60
2023/11/02 02:23:45;0.00;0.00;0.62;0.00;0.00;0.62;4.47;3.83;;;24.10;30.20;;;;;;2261981;61;20917;-60
2023/11/02 02:27:05;0.00;0.00;0.62;0.00;0.00;0.62;4.03;3.30;;;24.10;30.20;;;;;;2254225;61;20461;-62
2023/11/02 02:30:38;0.00;0.00;0.62;0.00;0.00;0.62;4.60;3.70;;;24.10;30.20;;;;;;2255340;61;20374;-60
2023/11/02 02:33:56;0.00;0.00;0.62;0.00;0.00;0.62;4.20;3.53;;;24.10;30.20;;;;;;2255964;61;20396;-61
2023/11/02 02:36:53;0.00;0.00;0.62;0.00;0.00;0.62;5.00;4.27;;;24.10;30.20;;;;;;2256691;61;20420;-63
2023/11/02 02:39:43;0.00;0.00;0.62;0.00;0.00;0.62;4.90;3.30;;;24.10;30.30;;;;;;2255859;61;20481;-61
2023/11/02 02:42:33;0.00;0.00;0.62;0.00;0.00;0.62;4.67;3.37;;;24.10;30.20;;;;;;2256226;61;20449;-62
2023/11/02 02:45:21;0.00;0.00;0.62;0.00;0.00;0.62;4.53;3.33;;;24.10;30.20;;;;;;2257816;61;20385;-62
2023/11/02 02:48:09;0.00;0.00;0.62;0.00;0.00;0.62;4.77;3.67;;;24.10;30.20;;;;;;2260145;61;20885;-61
2023/11/02 02:50:57;0.00;0.00;0.62;0.00;0.00;0.62;5.03;3.57;;;24.10;30.20;;;;;;2260386;61;20360;-62
2023/11/02 02:53:44;0.00;0.00;0.62;0.00;0.00;0.62;4.20;3.77;;;24.10;30.20;;;;;;2259824;61;20945;-61
2023/11/02 02:56:31;0.00;0.00;0.62;0.00;0.00;0.62;3.60;3.00;;;24.00;30.10;;;;;;2260058;61;20404;-61
2023/11/02 02:59:17;0.00;0.00;0.62;0.00;0.00;0.62;3.80;3.37;;;24.00;30.10;;;;;;2256107;61;20432;-62
2023/11/02 03:02:03;0.00;0.00;0.62;0.00;0.00;0.62;3.80;3.07;;;24.10;30.20;;;;;;2256327;61;20459;-62
2023/11/02 03:04:50;0.00;0.00;0.62;0.00;0.00;0.62;4.10;3.37;;;24.10;30.20;;;;;;2256039;61;20433;-64
2023/11/02 03:07:36;0.00;0.00;0.62;0.00;0.00;0.62;3.40;2.87;;;24.10;30.10;;;;;;2256197;61;20875;-62
2023/11/02 03:10:26;0.00;0.00;0.62;0.00;0.00;0.62;4.23;3.20;;;24.10;30.10;;;;;;2256157;61;20366;-61
2023/11/02 03:13:14;0.00;0.00;0.62;0.00;0.00;0.62;3.77;3.13;;;24.10;30.10;;;;;;2255947;61;20388;-61
2023/11/02 03:16:01;0.00;0.00;0.62;0.00;0.00;0.62;4.37;3.67;;;24.00;30.00;;;;;;2256265;61;20358;-61
2023/11/02 03:18:46;0.00;0.00;0.62;0.00;0.00;0.62;3.63;2.90;;;24.00;30.00;;;;;;2255864;61;20423;-62
2023/11/02 03:21:30;0.00;0.00;0.62;0.00;0.00;0.62;4.40;3.00;;;24.00;30.00;;;;;;2256165;61;20365;-61
2023/11/02 03:24:27;0.00;0.00;0.62;0.00;0.00;0.62;3.90;3.23;;;24.10;30.10;;;;;;2256530;61;20381;-62
2023/11/02 03:27:22;0.00;0.00;0.62;0.00;0.00;0.62;3.97;2.87;;;24.00;30.00;;;;;;2256528;61;20795;-62
2023/11/02 03:30:16;0.00;0.00;0.62;0.00;0.00;0.62;4.20;3.27;;;24.00;30.00;;;;;;2255499;61;20408;-60
2023/11/02 03:33:16;0.00;0.00;0.62;0.00;0.00;0.62;4.00;2.90;;;24.00;30.00;;;;;;2256028;61;20516;-61
2023/11/02 03:36:06;0.00;0.00;0.62;0.00;0.00;0.62;3.57;2.90;;;24.00;30.00;;;;;;2256179;61;20357;-63
2023/11/02 03:39:06;0.00;0.00;0.62;0.00;0.00;0.62;3.50;2.80;;;24.00;30.00;;;;;;2255651;61;20365;-64
2023/11/02 03:42:09;0.00;0.00;0.62;0.00;0.00;0.62;4.10;3.00;;;24.00;30.00;;;;;;2255786;61;20459;-60
2023/11/02 03:45:06;0.00;0.00;0.62;0.00;0.00;0.62;4.03;3.20;;;24.00;30.00;;;;;;2255558;61;20382;-57
2023/11/02 03:48:00;0.00;0.00;0.62;0.00;0.00;0.62;3.43;2.50;;;24.00;30.00;;;;;;2255731;61;20370;-62
2023/11/02 03:50:58;0.00;0.00;0.62;0.00;0.00;0.62;3.33;2.80;;;24.00;30.00;;;;;;2259957;61;20427;-59
2023/11/02 03:53:56;0.00;0.00;0.62;0.00;0.00;0.62;3.87;2.70;;;24.00;30.00;;;;;;2260579;61;20393;-60
2023/11/02 03:56:57;0.00;0.00;0.62;0.00;0.00;0.62;4.00;3.03;;;24.00;30.00;;;;;;2259759;61;20379;-61
2023/11/02 03:59:56;0.00;0.00;0.62;0.00;0.00;0.62;3.67;2.67;;;24.00;30.00;;;;;;2259686;61;20534;-57
2023/11/02 04:02:49;0.00;0.00;0.62;0.00;0.00;0.62;3.40;2.90;;;24.00;30.00;;;;;;2260402;61;20396;-60
2023/11/02 04:05:38;0.00;0.00;0.62;0.00;0.00;0.62;3.70;2.50;;;24.00;30.10;;;;;;2260170;61;20407;-61
2023/11/02 04:08:26;0.00;0.00;0.62;0.00;0.00;0.62;3.10;2.80;;;24.00;30.00;;;;;;2260097;61;20373;-61
2023/11/02 04:11:23;0.00;0.00;0.62;0.00;0.00;0.62;3.33;2.83;;;24.00;30.00;;;;;;2260531;61;20384;-58
2023/11/02 04:14:14;0.00;0.00;0.62;0.00;0.00;0.62;2.60;2.27;;;24.00;30.10;;;;;;2259739;61;20420;-60
2023/11/02 04:16:59;0.00;0.00;0.62;0.00;0.00;0.62;2.73;2.23;;;24.00;30.00;;;;;;2260247;61;20368;-62
2023/11/02 04:19:45;0.00;0.00;0.62;0.00;0.00;0.62;2.97;2.17;;;24.00;30.00;;;;;;2259738;61;20373;-64
2023/11/02 04:22:30;0.00;0.00;0.62;0.00;0.00;0.62;3.13;2.43;;;24.00;30.00;;;;;;2259931;61;20894;-61
2023/11/02 04:25:16;0.00;0.00;0.62;0.00;0.00;0.62;3.70;2.70;;;24.00;30.00;;;;;;2260279;61;20811;-62
2023/11/02 04:28:01;0.00;0.00;0.62;0.00;0.00;0.62;3.60;2.53;;;24.00;30.00;;;;;;2259105;61;20368;-63
2023/11/02 04:30:48;0.00;0.00;0.62;0.00;0.00;0.62;4.27;2.67;;;24.00;30.10;;;;;;2259720;61;20404;-60
2023/11/02 04:33:32;0.00;0.00;0.62;0.00;0.00;0.62;2.77;2.10;;;24.00;30.10;;;;;;2259454;61;20396;-62
2023/11/02 04:36:18;0.00;0.00;0.62;0.00;0.00;0.62;3.70;2.73;;;24.00;30.10;;;;;;2259899;61;20867;-62
2023/11/02 04:39:03;0.00;0.00;0.62;0.00;0.00;0.62;3.43;2.50;;;24.00;30.10;;;;;;2259846;61;20372;-60
2023/11/02 04:41:47;0.00;0.00;0.62;0.00;0.00;0.62;3.10;2.70;;;24.00;30.10;;;;;;2259710;61;20435;-62
2023/11/02 04:44:32;0.00;0.00;0.62;0.00;0.00;0.62;3.80;2.40;;;24.00;30.10;;;;;;2259872;61;20463;-61
2023/11/02 04:47:16;0.00;0.00;0.62;0.00;0.00;0.62;3.10;2.13;;;24.00;30.10;;;;;;2260179;61;20403;-62
2023/11/02 04:50:01;0.00;0.00;0.62;0.00;0.00;0.62;2.87;2.20;;;24.00;30.10;;;;;;2259967;61;20447;-60
2023/11/02 04:52:48;0.00;0.00;0.62;0.00;0.00;0.62;2.70;2.20;;;24.00;30.10;;;;;;2259816;61;20929;-62
2023/11/02 04:55:32;0.00;0.00;0.62;0.00;0.00;0.62;3.57;2.27;;;24.00;30.10;;;;;;2259751;61;20385;-59
2023/11/02 04:58:17;0.00;0.00;0.62;0.00;0.00;0.62;3.67;2.10;;;24.00;30.10;;;;;;2259348;61;20400;-61
2023/11/02 05:01:02;0.00;0.00;0.62;0.00;0.00;0.62;2.73;2.20;;;24.00;30.10;;;;;;2259726;61;20793;-62
2023/11/02 05:03:46;0.00;0.00;0.62;0.00;0.00;0.62;3.70;2.33;;;23.90;30.00;;;;;;2260076;61;20388;-62
2023/11/02 05:06:30;0.00;0.00;0.62;0.00;0.00;0.62;2.97;2.53;;;23.90;30.00;;;;;;2259893;61;20396;-62
2023/11/02 05:09:16;0.00;0.00;0.62;0.00;0.00;0.62;2.37;1.90;;;24.00;30.10;;;;;;2260131;61;20393;-61
2023/11/02 05:12:01;0.00;0.00;0.62;0.00;0.00;0.62;2.77;2.30;;;23.90;30.00;;;;;;2259974;61;20365;-60
2023/11/02 05:14:45;0.00;0.00;0.62;0.00;0.00;0.62;3.37;1.80;;;23.90;30.00;;;;;;2270982;40;20456;-61
2023/11/02 05:17:30;0.00;0.00;0.62;0.00;0.00;0.62;2.67;2.03;;;23.90;30.00;;;;;;2256227;61;20374;-61
2023/11/02 05:20:14;0.00;0.00;0.62;0.00;0.00;0.62;3.27;2.50;;;23.90;30.00;;;;;;2255487;61;20365;-60
2023/11/02 05:22:59;0.00;0.00;0.62;0.00;0.00;0.62;2.87;2.10;;;23.90;30.00;;;;;;2256301;61;20436;-62
2023/11/02 05:25:45;0.00;0.00;0.62;0.00;0.00;0.62;3.33;2.30;;;23.90;30.00;;;;;;2251988;61;20371;-59
2023/11/02 05:28:29;0.00;0.00;0.62;0.00;0.00;0.62;2.70;1.73;;;23.90;30.00;;;;;;2250915;61;20884;-62
2023/11/02 05:31:14;0.00;0.00;0.62;0.00;0.00;0.62;2.47;2.17;;;23.90;30.00;;;;;;2248786;61;20366;-61
2023/11/02 05:33:59;0.00;0.00;0.62;0.00;0.00;0.62;2.77;2.17;;;23.90;30.00;;;;;;2251206;61;20390;-61
2023/11/02 05:36:43;0.00;0.00;0.62;0.00;0.00;0.62;2.83;2.20;;;23.90;30.00;;;;;;2251900;61;20926;-61
2023/11/02 05:39:28;0.00;0.00;0.62;0.00;0.00;0.62;3.60;2.20;;;23.90;30.00;;;;;;2251483;61;20378;-61
2023/11/02 05:42:14;0.00;0.00;0.62;0.00;0.00;0.62;2.67;1.87;;;23.90;30.00;;;;;;2251601;61;20370;-61
2023/11/02 05:44:59;0.00;0.00;0.62;0.00;0.00;0.62;2.73;2.13;;;23.90;30.00;;;;;;2251875;61;20383;-61
2023/11/02 05:47:43;0.00;0.00;0.62;0.00;0.00;0.62;2.80;2.23;;;23.90;30.00;;;;;;2251750;61;20437;-62
2023/11/02 05:50:28;0.00;0.00;0.62;0.00;0.00;0.62;3.67;2.80;;;23.90;30.00;;;;;;2251402;61;20370;-62
2023/11/02 05:53:13;0.00;0.00;0.62;0.00;0.00;0.62;3.43;2.43;;;23.90;30.00;;;;;;2252104;61;20379;-62
2023/11/02 05:55:58;0.00;0.00;0.62;0.00;0.00;0.62;3.10;2.30;;;23.90;30.00;;;;;;2251860;61;20371;-62
2023/11/02 05:58:45;0.00;0.00;0.62;0.00;0.00;0.62;3.10;2.33;;;23.90;30.00;;;;;;2251317;61;20371;-62
2023/11/02 06:01:29;0.00;0.00;0.62;0.00;0.00;0.62;4.33;2.93;;;23.90;30.00;;;;;;2248756;61;20370;-60
2023/11/02 06:04:14;0.00;0.00;0.62;0.00;0.00;0.62;3.50;2.57;;;23.90;30.00;;;;;;2251491;61;20433;-62
2023/11/02 06:06:58;0.00;0.00;0.62;0.00;0.00;0.62;4.13;3.17;;;23.90;30.00;;;;;;2251463;61;20473;-62
2023/11/02 06:09:44;0.00;0.00;0.62;0.00;0.00;0.62;3.53;2.83;;;23.90;30.00;;;;;;2251881;61;20421;-60
2023/11/02 06:12:29;0.00;0.00;0.62;0.00;0.00;0.62;3.40;3.00;;;23.90;30.00;;;;;;2251678;61;20378;-62
2023/11/02 06:15:15;0.00;0.00;0.62;0.00;0.00;0.62;3.80;3.10;;;23.90;30.00;;;;;;2251251;61;20422;-61
2023/11/02 06:18:00;0.00;0.00;0.62;0.00;0.00;0.62;4.20;3.43;;;23.90;30.00;;;;;;2251274;61;20434;-61
2023/11/02 06:20:45;0.00;0.00;0.62;0.00;0.00;0.62;4.10;3.40;;;23.90;30.00;;;;;;2251670;61;20948;-62
2023/11/02 06:23:29;0.00;0.00;0.62;0.00;0.00;0.62;3.70;3.10;;;23.90;30.00;;;;;;2251960;61;20433;-62
2023/11/02 06:26:18;0.00;0.00;0.62;0.00;0.00;0.62;5.47;4.13;;;23.90;30.00;;;;;;2251733;61;20907;-61
2023/11/02 06:29:02;0.00;0.00;0.62;0.00;0.00;0.62;4.93;3.80;;;23.90;30.00;;;;;;2251565;61;20401;-61
2023/11/02 06:31:48;0.00;0.00;0.62;0.00;0.00;0.62;6.00;4.13;;;23.90;30.00;;;;;;2252050;61;20394;-62
2023/11/02 06:34:36;0.00;0.00;0.62;0.00;0.00;0.62;4.40;3.77;;;23.90;30.00;;;;;;2251012;61;20441;-62
2023/11/02 06:37:21;0.00;0.00;0.62;0.00;0.00;0.62;4.37;3.83;;;23.80;29.90;;;;;;2251872;61;20370;-61
2023/11/02 06:40:07;0.00;0.00;0.62;0.00;0.00;0.62;4.60;3.73;;;23.90;30.00;;;;;;2251296;61;20362;-62
2023/11/02 06:42:55;0.00;0.00;0.62;0.00;0.00;0.62;5.30;3.83;;;23.80;29.90;;;;;;2251616;61;20375;-58
2023/11/02 06:45:39;0.00;0.00;0.62;0.00;0.00;0.62;5.73;4.00;;;23.90;30.00;;;;;;2251794;61;20370;-60
2023/11/02 06:48:26;0.00;0.00;0.62;0.00;0.00;0.62;4.90;3.53;;;23.90;30.00;;;;;;2251000;61;20355;-60
2023/11/02 06:51:11;0.00;0.00;0.62;0.00;0.00;0.62;4.10;3.60;;;23.90;30.00;;;;;;2251884;61;20371;-60
2023/11/02 06:53:56;0.00;0.00;0.62;0.00;0.00;0.62;4.90;4.13;;;23.90;30.00;;;;;;2251894;61;20426;-61
2023/11/02 06:56:40;0.00;0.00;0.62;0.00;0.00;0.62;5.07;4.20;;;23.80;29.90;;;;;;2251532;61;20367;-67
2023/11/02 06:59:25;0.00;0.00;0.62;0.00;0.00;0.62;4.70;4.20;;;23.80;29.90;;;;;;2251373;61;20410;-61
2023/11/02 07:02:11;0.00;0.00;0.62;0.00;0.00;0.62;5.10;4.33;;;23.80;29.90;;;;;;2251590;61;20371;-62
2023/11/02 07:04:57;0.00;0.00;0.62;0.00;0.00;0.62;5.87;4.73;;;23.80;29.90;;;;;;2251443;61;20383;-61
2023/11/02 07:07:44;0.00;0.00;0.62;0.00;0.00;0.62;5.77;3.80;;;23.80;29.90;;;;;;2251925;61;20468;-62
2023/11/02 07:10:30;0.00;0.00;0.62;0.00;0.00;0.62;4.77;3.93;;;23.80;29.90;;;;;;2251772;61;20455;-62
2023/11/02 07:13:15;0.00;0.00;0.62;0.00;0.00;0.62;5.03;4.53;;;23.80;29.90;;;;;;2251709;61;20501;-61
2023/11/02 07:16:00;0.00;0.00;0.62;0.00;0.00;0.62;5.10;3.97;;;23.80;29.80;;;;;;2251665;61;20374;-67
2023/11/02 07:18:44;0.00;0.00;0.62;0.00;0.00;0.62;5.30;4.60;;;23.80;29.90;;;;;;2250296;61;20377;-62
2023/11/02 07:21:30;0.00;0.00;0.62;0.00;0.00;0.62;6.30;4.13;;;23.80;29.90;;;;;;2252585;61;20812;-61
2023/11/02 07:24:15;0.00;0.00;0.62;0.00;0.00;0.62;5.67;4.63;;;23.80;29.90;;;;;;2252261;61;20387;-61
2023/11/02 07:26:59;0.00;0.00;0.62;0.00;0.00;0.62;4.97;4.47;;;23.80;29.90;;;;;;2252124;61;20451;-61
2023/11/02 07:29:44;0.00;0.00;0.62;0.00;0.00;0.62;7.60;5.57;;;23.80;29.80;;;;;;2252160;61;20370;-61
2023/11/02 07:32:29;0.00;0.00;0.62;0.00;0.00;0.62;5.40;4.30;;;23.80;29.80;;;;;;2252324;61;20358;-65
2023/11/02 07:35:13;0.00;0.00;0.62;0.00;0.00;0.62;6.30;4.03;;;23.80;29.80;;;;;;2252029;61;20491;-62
2023/11/02 07:37:59;0.00;0.00;0.62;0.00;0.00;0.62;5.50;4.60;;;23.80;29.80;;;;;;2252015;61;20762;-62
2023/11/02 07:40:44;0.00;0.00;0.62;0.00;0.00;0.62;5.10;4.37;;;23.80;29.80;;;;;;2252029;61;21543;-61
2023/11/02 07:43:29;0.00;0.00;0.62;0.00;0.00;0.62;6.83;4.93;;;23.80;29.80;;;;;;2252505;61;20437;-67
2023/11/02 07:46:13;0.00;0.00;0.62;0.00;0.00;0.62;5.40;4.43;;;23.80;29.80;;;;;;2252375;61;20777;-61
2023/11/02 07:48:59;0.00;0.00;0.62;0.00;0.00;0.62;7.70;5.70;;;23.80;30.00;;;;;;2251328;61;20370;-60
2023/11/02 07:51:43;0.00;0.00;0.62;0.00;0.00;0.62;5.87;4.70;;;23.80;29.80;;;;;;2252397;61;20892;-59
2023/11/02 07:54:29;0.00;0.00;0.62;0.00;0.00;0.62;5.17;4.37;;;23.80;29.80;;;;;;2252199;61;20394;-61
2023/11/02 07:57:14;0.00;0.00;0.62;0.00;0.00;0.62;6.03;4.80;;;23.80;29.80;;;;;;2248988;61;20425;-62
2023/11/02 07:59:59;0.00;0.00;0.62;0.00;0.00;0.62;6.33;4.43;;;23.80;29.80;;;;;;2251967;61;20362;-62
2023/11/02 08:02:44;0.00;0.00;0.62;0.00;0.00;0.62;5.73;4.13;;;23.80;29.80;;;;;;2251713;61;20374;-60
2023/11/02 08:05:28;0.00;0.00;0.62;0.00;0.00;0.62;6.60;4.37;;;23.80;29.80;;;;;;2252394;61;20383;-60
2023/11/02 08:08:13;0.00;0.00;0.62;0.00;0.00;0.62;5.00;4.13;;;23.80;29.80;;;;;;2251835;61;20598;-62
2023/11/02 08:10:58;0.00;0.00;0.62;0.00;0.00;0.62;5.63;4.57;;;23.80;29.80;;;;;;2252306;61;20383;-62
2023/11/02 08:13:43;0.00;0.00;0.62;0.00;0.00;0.62;4.40;3.90;;;23.80;29.80;;;;;;2252092;61;20394;-60
2023/11/02 08:16:28;0.00;0.00;0.62;0.00;0.00;0.62;4.80;3.80;;;23.80;29.80;;;;;;2252216;61;20455;-62
2023/11/02 08:19:13;0.00;0.00;0.62;0.00;0.00;0.62;4.63;3.83;;;23.80;29.70;;;;;;2251324;61;20374;-62
2023/11/02 08:21:57;0.00;0.00;0.62;0.00;0.00;0.62;5.80;4.20;;;23.80;29.70;;;;;;2246268;61;20463;-61
2023/11/02 08:24:42;0.00;0.00;0.62;0.00;0.00;0.62;4.77;4.00;;;23.80;29.70;;;;;;2251967;61;20434;-63
2023/11/02 08:27:28;0.00;0.00;0.62;0.00;0.00;0.62;5.20;4.40;;;23.80;29.70;;;;;;2252378;61;20366;-60
2023/11/02 08:30:12;0.00;0.00;0.62;0.00;0.00;0.62;5.40;4.63;;;23.80;30.20;;;;;;2252113;61;20371;-61
2023/11/02 08:32:57;0.00;0.00;0.62;0.00;0.00;0.62;5.60;4.23;;;23.80;29.70;;;;;;2252112;61;20391;-61
2023/11/02 08:35:42;0.00;0.00;0.62;0.00;0.00;0.62;5.40;4.30;;;23.80;29.70;;;;;;2252405;61;20986;-61
2023/11/02 08:38:26;0.00;0.00;0.62;0.00;0.00;0.62;6.40;4.23;;;23.80;29.70;;;;;;2251918;61;20371;-62
2023/11/02 08:41:18;0.00;0.00;0.62;0.00;0.00;0.62;5.00;4.00;;;23.80;29.60;;;;;;2252281;61;20835;-61
2023/11/02 08:44:04;0.00;0.00;0.62;0.00;0.00;0.62;6.07;3.73;;;23.80;29.60;;;;;;2252504;61;20380;-61
2023/11/02 08:46:51;0.00;0.00;0.62;0.00;0.00;0.62;4.97;3.70;;;23.80;29.60;;;;;;2245234;61;20897;-61
2023/11/02 08:49:37;0.00;0.00;0.62;0.00;0.00;0.62;4.33;3.70;;;23.80;29.60;;;;;;2248133;61;20452;-62
2023/11/02 08:52:22;0.00;0.00;0.62;0.00;0.00;0.62;4.60;3.97;;;23.70;29.50;;;;;;2248429;61;20371;-61
2023/11/02 08:55:07;0.00;0.00;0.62;0.00;0.00;0.62;4.37;3.47;;;23.80;29.50;;;;;;2247960;61;20395;-61
2023/11/02 08:57:52;0.00;0.00;0.62;0.00;0.00;0.62;3.83;3.33;;;23.70;29.40;;;;;;2248022;61;20367;-62
2023/11/02 09:00:38;0.00;0.00;0.62;0.00;0.00;0.62;3.80;2.90;;;23.70;29.40;;;;;;2248213;61;20506;-62
2023/11/02 09:03:23;0.00;0.00;0.62;0.00;0.00;0.62;3.87;2.90;;;23.70;29.40;;;;;;2248014;61;20376;-60
2023/11/02 09:06:08;0.00;0.00;0.62;0.00;0.00;0.62;4.50;3.30;;;23.80;29.40;;;;;;2248364;61;20367;-63
2023/11/02 09:08:56;0.00;0.00;0.62;0.00;0.00;0.62;3.60;2.93;;;23.70;29.30;;;;;;2247560;61;20964;-61
2023/11/02 09:11:41;0.00;0.00;0.62;0.00;0.00;0.62;3.60;2.80;;;23.70;29.30;;;;;;2248422;61;20460;-58
2023/11/02 09:14:26;0.00;0.00;0.62;0.00;0.00;0.62;3.57;3.27;;;23.70;29.30;;;;;;2248313;61;20435;-61
2023/11/02 09:17:12;0.00;0.00;0.62;0.00;0.00;0.62;3.80;3.20;;;23.70;29.30;;;;;;2247880;61;20383;-58
2023/11/02 09:19:57;0.00;0.00;0.62;0.00;0.00;0.62;3.83;2.87;;;23.70;29.30;;;;;;2247974;61;20407;-62
2023/11/02 09:22:43;0.00;0.00;0.62;0.00;0.00;0.62;3.30;2.50;;;23.70;29.20;;;;;;2248078;61;20414;-60
2023/11/02 09:25:28;0.00;0.00;0.62;0.00;0.00;0.62;4.13;2.80;;;23.70;29.30;;;;;;2247776;61;20512;-62
2023/11/02 09:28:13;0.00;0.00;0.62;0.00;0.00;0.62;5.53;3.77;;;23.70;29.20;;;;;;2248329;61;20372;-62
2023/11/02 09:30:58;0.00;0.00;0.62;0.00;0.00;0.62;3.30;2.83;;;23.70;29.30;;;;;;2247903;61;20375;-62
2023/11/02 09:33:44;0.00;0.00;0.62;0.00;0.00;0.62;3.93;3.00;;;23.70;29.20;;;;;;2248080;61;20944;-61
2023/11/02 09:36:31;0.00;0.00;0.62;0.00;0.00;0.62;3.50;2.53;;;23.70;29.30;;;;;;2248140;61;20886;-61
2023/11/02 09:39:16;0.00;0.00;0.62;0.00;0.00;0.62;3.40;2.40;;;23.70;29.20;;;;;;2247290;61;20431;-60
2023/11/02 09:42:01;0.00;0.00;0.62;0.00;0.00;0.62;3.20;2.27;;;23.70;29.20;;;;;;2248448;61;20388;-60
2023/11/02 09:44:46;0.00;0.00;0.62;0.00;0.00;0.62;3.50;2.63;;;23.70;29.20;;;;;;2247939;61;20384;-61
2023/11/02 09:47:32;0.00;0.00;0.62;0.00;0.00;0.62;3.37;2.57;;;23.70;29.20;;;;;;2247678;61;20876;-62
2023/11/02 09:50:18;0.00;0.00;0.62;0.00;0.00;0.62;2.77;2.27;;;23.70;29.70;;;;;;2248002;61;20384;-64
2023/11/02 09:53:05;0.00;0.00;0.62;0.00;0.00;0.62;3.37;2.23;;;23.70;29.20;;;;;;2247765;61;20367;-62
2023/11/02 09:55:51;0.00;0.00;0.62;0.00;0.00;0.62;4.17;2.50;;;23.70;29.20;;;;;;2247836;61;20588;-62
2023/11/02 09:58:36;0.00;0.00;0.62;0.00;0.00;0.62;2.63;1.80;;;23.70;29.20;;;;;;2247609;61;20367;-62
2023/11/02 10:01:21;0.00;0.00;0.62;0.00;0.00;0.62;3.03;2.47;;;23.70;29.20;;;;;;2244492;61;20784;-63
2023/11/02 10:04:06;0.00;0.00;0.62;0.00;0.00;0.62;2.90;2.30;;;23.70;29.20;;;;;;2248090;61;20423;-61
2023/11/02 10:06:52;0.00;0.00;0.62;0.00;0.00;0.62;3.07;2.03;;;23.70;29.20;;;;;;2248145;61;20940;-62
2023/11/02 10:09:38;0.00;0.00;0.62;0.00;0.00;0.62;2.80;1.93;;;23.70;29.20;;;;;;2247458;61;20862;-62
2023/11/02 10:12:23;0.00;0.00;0.62;0.00;0.00;0.62;2.67;2.17;;;23.70;29.20;;;;;;2244794;61;20382;-62
2023/11/02 10:15:11;0.00;0.00;0.62;0.00;0.00;0.62;2.40;1.70;;;23.70;29.20;;;;;;2247757;61;20404;-62
2023/11/02 10:17:56;0.00;0.00;0.62;0.00;0.00;0.62;2.23;1.70;;;23.70;29.20;;;;;;2244334;61;20371;-61
2023/11/02 10:20:41;0.00;0.00;0.62;0.00;0.00;0.62;2.30;1.93;;;23.70;29.20;;;;;;2248001;61;20403;-62
2023/11/02 10:23:26;0.00;0.00;0.62;0.00;0.00;0.62;2.60;1.87;;;23.70;29.30;;;;;;2247489;61;20395;-63
2023/11/02 10:26:13;0.00;0.00;0.62;0.00;0.00;0.62;2.10;1.77;;;23.70;29.30;;;;;;2248102;61;20376;-62
2023/11/02 10:29:00;0.00;0.00;0.62;0.00;0.00;0.62;1.90;1.50;;;23.70;29.30;;;;;;2247524;61;20371;-62
2023/11/02 10:31:46;0.00;0.00;0.62;0.00;0.00;0.62;2.80;2.00;;;23.70;29.30;;;;;;2244514;61;20458;-62
2023/11/02 10:34:32;0.00;0.00;0.62;0.00;0.00;0.62;3.20;2.30;;;23.70;29.30;;;;;;2244838;61;20481;-63
2023/11/02 10:37:28;0.00;0.00;0.62;0.00;0.00;0.62;3.10;2.23;;;23.70;29.40;;;;;;2247891;61;20363;-60
2023/11/02 10:40:16;0.00;0.00;0.62;0.00;0.00;0.62;2.20;1.60;;;23.70;29.40;;;;;;2247403;61;20359;-62
2023/11/02 10:43:02;0.00;0.00;0.62;0.00;0.00;0.62;3.20;2.17;;;23.60;29.30;;;;;;2248059;61;20371;-62
2023/11/02 10:45:49;0.00;0.00;0.62;0.00;0.00;0.62;2.40;1.53;;;23.70;29.40;;;;;;2247501;61;20391;-63
2023/11/02 10:48:40;0.00;0.00;0.62;0.00;0.00;0.62;2.50;1.40;;;23.60;29.30;;;;;;2247664;61;20379;-63
2023/11/02 10:51:29;0.00;0.00;0.62;0.00;0.00;0.62;2.00;1.63;;;23.60;29.30;;;;;;2248029;61;20367;-63
2023/11/02 10:54:26;0.00;0.00;0.62;0.00;0.00;0.62;3.20;2.50;;;23.70;29.40;;;;;;2244641;61;20516;-61
2023/11/02 10:57:16;0.00;0.00;0.62;0.00;0.00;0.62;2.40;1.60;;;23.60;29.40;;;;;;2245609;61;20395;-62
2023/11/02 11:00:04;0.00;0.00;0.62;0.00;0.00;0.62;2.60;1.90;;;23.60;29.40;;;;;;2248414;61;20371;-62
2023/11/02 11:02:50;0.00;0.00;0.62;0.00;0.00;0.62;1.90;1.50;;;23.70;29.50;;;;;;2248739;61;20414;-62